sensor_id;sensor_type;location;lat;lon;timestamp;P1;durP1;ratioP1;P2;durP2;ratioP2
30133;SDS011;16946;49.984;10.672;2024-02-28T00:00:18;20.90;;;13.60;;
30133;SDS011;16946;49.984;10.672;2024-02-28T00:00:49;19.43;;;12.73;;
30133;SDS011;16946;49.984;10.672;2024-02-28T00:01:21;18.90;;;11.25;;
30133;SDS011;16946;49.984;10.672;2024-02-28T00:01:52;21.43;;;12.47;;
30133;SDS011;16946;49.984;10.672;2024-02-28T00:02:23;17.93;;;13.13;;
30133;SDS011;16946;49.984;10.672;2024-02-28T00:02:53;18.47;;;12.17;;
30133;SDS011;16946;49.984;10.672;2024-02-28T00:03:24;16.60;;;12.27;;
30133;SDS011;16946;49.984;10.672;2024-02-28T00:03:54;19.30;;;12.57;;
30133;SDS011;16946;49.984;10.672;2024-02-28T00:04:25;17.50;;;12.87;;
30133;SDS011;16946;49.984;10.672;2024-02-28T00:04:55;19.03;;;12.60;;
30133;SDS011;16946;49.984;10.672;2024-02-28T00:05:29;16.75;;;12.77;;
30133;SDS011;16946;49.984;10.672;2024-02-28T00:05:59;15.77;;;12.33;;
30133;SDS011;16946;49.984;10.672;2024-02-28T00:06:30;16.30;;;11.97;;
30133;SDS011;16946;49.984;10.672;2024-02-28T00:07:00;16.50;;;12.87;;
30133;SDS011;16946;49.984;10.672;2024-02-28T00:07:31;17.23;;;11.20;;
30133;SDS011;16946;49.984;10.672;2024-02-28T00:08:01;22.27;;;13.40;;
30133;SDS011;16946;49.984;10.672;2024-02-28T00:08:32;18.43;;;12.60;;
30133;SDS011;16946;49.984;10.672;2024-02-28T00:09:03;19.30;;;13.20;;
30133;SDS011;16946;49.984;10.672;2024-02-28T00:09:33;14.87;;;12.10;;
30133;SDS011;16946;49.984;10.672;2024-02-28T00:10:04;18.60;;;12.37;;
30133;SDS011;16946;49.984;10.672;2024-02-28T00:10:35;20.30;;;12.05;;
30133;SDS011;16946;49.984;10.672;2024-02-28T00:11:05;17.87;;;12.33;;
30133;SDS011;16946;49.984;10.672;2024-02-28T00:11:35;17.43;;;12.43;;
30133;SDS011;16946;49.984;10.672;2024-02-28T00:12:06;16.13;;;12.53;;
30133;SDS011;16946;49.984;10.672;2024-02-28T00:12:38;14.73;;;11.30;;
30133;SDS011;16946;49.984;10.672;2024-02-28T00:13:08;19.38;;;12.85;;
30133;SDS011;16946;49.984;10.672;2024-02-28T00:13:39;18.37;;;13.03;;
30133;SDS011;16946;49.984;10.672;2024-02-28T00:14:09;13.63;;;11.67;;
30133;SDS011;16946;49.984;10.672;2024-02-28T00:14:40;19.60;;;13.13;;
30133;SDS011;16946;49.984;10.672;2024-02-28T00:15:11;16.43;;;12.07;;
30133;SDS011;16946;49.984;10.672;2024-02-28T00:15:41;16.03;;;11.63;;
30133;SDS011;16946;49.984;10.672;2024-02-28T00:16:12;18.67;;;12.00;;
30133;SDS011;16946;49.984;10.672;2024-02-28T00:16:43;17.27;;;10.87;;
30133;SDS011;16946;49.984;10.672;2024-02-28T00:17:14;15.30;;;11.38;;
30133;SDS011;16946;49.984;10.672;2024-02-28T00:17:45;21.23;;;12.23;;
30133;SDS011;16946;49.984;10.672;2024-02-28T00:18:16;14.23;;;11.47;;
30133;SDS011;16946;49.984;10.672;2024-02-28T00:18:46;17.47;;;11.20;;
30133;SDS011;16946;49.984;10.672;2024-02-28T00:19:17;16.67;;;12.63;;
30133;SDS011;16946;49.984;10.672;2024-02-28T00:19:48;16.48;;;12.02;;
30133;SDS011;16946;49.984;10.672;2024-02-28T00:20:19;16.47;;;12.10;;
30133;SDS011;16946;49.984;10.672;2024-02-28T00:20:49;15.07;;;11.83;;
30133;SDS011;16946;49.984;10.672;2024-02-28T00:21:20;22.33;;;11.83;;
30133;SDS011;16946;49.984;10.672;2024-02-28T00:21:50;16.93;;;11.83;;
30133;SDS011;16946;49.984;10.672;2024-02-28T00:22:21;18.80;;;12.20;;
30133;SDS011;16946;49.984;10.672;2024-02-28T00:22:51;14.13;;;11.37;;
30133;SDS011;16946;49.984;10.672;2024-02-28T00:23:22;17.00;;;12.17;;
30133;SDS011;16946;49.984;10.672;2024-02-28T00:23:52;18.50;;;11.87;;
30133;SDS011;16946;49.984;10.672;2024-02-28T00:24:23;17.27;;;12.00;;
30133;SDS011;16946;49.984;10.672;2024-02-28T00:24:53;14.37;;;11.70;;
30133;SDS011;16946;49.984;10.672;2024-02-28T00:25:24;18.37;;;11.87;;
30133;SDS011;16946;49.984;10.672;2024-02-28T00:25:55;18.87;;;11.60;;
30133;SDS011;16946;49.984;10.672;2024-02-28T00:26:25;16.63;;;12.10;;
30133;SDS011;16946;49.984;10.672;2024-02-28T00:26:56;17.63;;;11.87;;
30133;SDS011;16946;49.984;10.672;2024-02-28T00:27:26;17.30;;;12.07;;
30133;SDS011;16946;49.984;10.672;2024-02-28T00:27:57;18.50;;;11.83;;
30133;SDS011;16946;49.984;10.672;2024-02-28T00:28:28;16.10;;;12.23;;
30133;SDS011;16946;49.984;10.672;2024-02-28T00:28:58;16.57;;;12.03;;
30133;SDS011;16946;49.984;10.672;2024-02-28T00:29:29;16.33;;;11.83;;
30133;SDS011;16946;49.984;10.672;2024-02-28T00:29:59;17.50;;;12.03;;
30133;SDS011;16946;49.984;10.672;2024-02-28T00:30:30;17.83;;;11.97;;
30133;SDS011;16946;49.984;10.672;2024-02-28T00:31:02;20.60;;;12.30;;
30133;SDS011;16946;49.984;10.672;2024-02-28T00:31:33;14.83;;;12.03;;
30133;SDS011;16946;49.984;10.672;2024-02-28T00:32:04;15.53;;;11.70;;
30133;SDS011;16946;49.984;10.672;2024-02-28T00:32:34;17.90;;;12.20;;
30133;SDS011;16946;49.984;10.672;2024-02-28T00:33:05;17.03;;;13.03;;
30133;SDS011;16946;49.984;10.672;2024-02-28T00:33:35;18.63;;;12.37;;
30133;SDS011;16946;49.984;10.672;2024-02-28T00:34:06;20.13;;;12.50;;
30133;SDS011;16946;49.984;10.672;2024-02-28T00:34:38;13.77;;;11.70;;
30133;SDS011;16946;49.984;10.672;2024-02-28T00:35:09;24.90;;;13.17;;
30133;SDS011;16946;49.984;10.672;2024-02-28T00:35:39;16.17;;;11.63;;
30133;SDS011;16946;49.984;10.672;2024-02-28T00:36:10;23.33;;;13.70;;
30133;SDS011;16946;49.984;10.672;2024-02-28T00:36:41;15.63;;;12.37;;
30133;SDS011;16946;49.984;10.672;2024-02-28T00:37:12;15.80;;;12.40;;
30133;SDS011;16946;49.984;10.672;2024-02-28T00:37:42;19.03;;;12.13;;
30133;SDS011;16946;49.984;10.672;2024-02-28T00:38:13;22.00;;;11.93;;
30133;SDS011;16946;49.984;10.672;2024-02-28T00:38:43;18.03;;;12.53;;
30133;SDS011;16946;49.984;10.672;2024-02-28T00:39:14;17.90;;;13.43;;
30133;SDS011;16946;49.984;10.672;2024-02-28T00:39:44;20.87;;;13.30;;
30133;SDS011;16946;49.984;10.672;2024-02-28T00:40:15;22.00;;;13.03;;
30133;SDS011;16946;49.984;10.672;2024-02-28T00:40:45;19.20;;;13.60;;
30133;SDS011;16946;49.984;10.672;2024-02-28T00:41:16;18.80;;;12.73;;
30133;SDS011;16946;49.984;10.672;2024-02-28T00:41:47;18.67;;;12.77;;
30133;SDS011;16946;49.984;10.672;2024-02-28T00:42:17;18.93;;;12.63;;
30133;SDS011;16946;49.984;10.672;2024-02-28T00:42:48;16.10;;;12.47;;
30133;SDS011;16946;49.984;10.672;2024-02-28T00:43:18;18.37;;;11.93;;
30133;SDS011;16946;49.984;10.672;2024-02-28T00:43:49;19.13;;;12.77;;
30133;SDS011;16946;49.984;10.672;2024-02-28T00:44:19;19.53;;;12.57;;
30133;SDS011;16946;49.984;10.672;2024-02-28T00:44:50;21.37;;;13.07;;
30133;SDS011;16946;49.984;10.672;2024-02-28T00:45:20;22.57;;;12.73;;
30133;SDS011;16946;49.984;10.672;2024-02-28T00:45:51;18.80;;;12.20;;
30133;SDS011;16946;49.984;10.672;2024-02-28T00:46:21;20.03;;;13.33;;
30133;SDS011;16946;49.984;10.672;2024-02-28T00:46:52;20.00;;;13.70;;
30133;SDS011;16946;49.984;10.672;2024-02-28T00:47:22;19.67;;;13.97;;
30133;SDS011;16946;49.984;10.672;2024-02-28T00:47:53;20.20;;;13.60;;
30133;SDS011;16946;49.984;10.672;2024-02-28T00:48:25;17.52;;;12.40;;
30133;SDS011;16946;49.984;10.672;2024-02-28T00:48:56;16.15;;;12.35;;
30133;SDS011;16946;49.984;10.672;2024-02-28T00:49:27;18.43;;;14.07;;
30133;SDS011;16946;49.984;10.672;2024-02-28T00:49:57;17.03;;;13.60;;
30133;SDS011;16946;49.984;10.672;2024-02-28T00:50:28;20.93;;;14.47;;
30133;SDS011;16946;49.984;10.672;2024-02-28T00:50:58;18.97;;;13.03;;
30133;SDS011;16946;49.984;10.672;2024-02-28T00:51:29;19.73;;;14.10;;
30133;SDS011;16946;49.984;10.672;2024-02-28T00:51:59;24.70;;;14.07;;
30133;SDS011;16946;49.984;10.672;2024-02-28T00:52:30;20.10;;;12.60;;
30133;SDS011;16946;49.984;10.672;2024-02-28T00:53:02;20.13;;;13.68;;
30133;SDS011;16946;49.984;10.672;2024-02-28T00:53:32;20.67;;;13.93;;
30133;SDS011;16946;49.984;10.672;2024-02-28T00:54:03;19.37;;;13.87;;
30133;SDS011;16946;49.984;10.672;2024-02-28T00:54:34;19.83;;;13.00;;
30133;SDS011;16946;49.984;10.672;2024-02-28T00:55:04;18.03;;;12.77;;
30133;SDS011;16946;49.984;10.672;2024-02-28T00:55:35;21.67;;;14.68;;
30133;SDS011;16946;49.984;10.672;2024-02-28T00:56:06;19.40;;;12.90;;
30133;SDS011;16946;49.984;10.672;2024-02-28T00:56:36;24.00;;;13.83;;
30133;SDS011;16946;49.984;10.672;2024-02-28T00:57:07;23.30;;;14.37;;
30133;SDS011;16946;49.984;10.672;2024-02-28T00:57:37;17.37;;;13.70;;
30133;SDS011;16946;49.984;10.672;2024-02-28T00:58:08;21.27;;;13.87;;
30133;SDS011;16946;49.984;10.672;2024-02-28T00:58:39;23.00;;;13.67;;
30133;SDS011;16946;49.984;10.672;2024-02-28T00:59:09;21.90;;;14.30;;
30133;SDS011;16946;49.984;10.672;2024-02-28T00:59:42;20.98;;;14.63;;
30133;SDS011;16946;49.984;10.672;2024-02-28T01:00:14;23.50;;;14.07;;
30133;SDS011;16946;49.984;10.672;2024-02-28T01:00:45;20.77;;;14.40;;
30133;SDS011;16946;49.984;10.672;2024-02-28T01:01:16;20.50;;;13.35;;
30133;SDS011;16946;49.984;10.672;2024-02-28T01:01:48;19.27;;;13.43;;
30133;SDS011;16946;49.984;10.672;2024-02-28T01:02:19;23.50;;;14.10;;
30133;SDS011;16946;49.984;10.672;2024-02-28T01:02:49;15.63;;;12.20;;
30133;SDS011;16946;49.984;10.672;2024-02-28T01:03:20;16.40;;;12.40;;
30133;SDS011;16946;49.984;10.672;2024-02-28T01:03:50;21.07;;;13.73;;
30133;SDS011;16946;49.984;10.672;2024-02-28T01:04:21;24.03;;;13.53;;
30133;SDS011;16946;49.984;10.672;2024-02-28T01:04:51;17.87;;;14.00;;
30133;SDS011;16946;49.984;10.672;2024-02-28T01:05:22;19.40;;;13.00;;
30133;SDS011;16946;49.984;10.672;2024-02-28T01:05:52;17.90;;;12.70;;
30133;SDS011;16946;49.984;10.672;2024-02-28T01:06:23;17.40;;;13.13;;
30133;SDS011;16946;49.984;10.672;2024-02-28T01:06:53;17.57;;;13.53;;
30133;SDS011;16946;49.984;10.672;2024-02-28T01:07:24;15.70;;;12.80;;
30133;SDS011;16946;49.984;10.672;2024-02-28T01:07:54;18.53;;;12.70;;
30133;SDS011;16946;49.984;10.672;2024-02-28T01:08:25;19.17;;;12.43;;
30133;SDS011;16946;49.984;10.672;2024-02-28T01:08:55;16.70;;;13.13;;
30133;SDS011;16946;49.984;10.672;2024-02-28T01:09:26;18.93;;;12.73;;
30133;SDS011;16946;49.984;10.672;2024-02-28T01:09:56;19.07;;;13.27;;
30133;SDS011;16946;49.984;10.672;2024-02-28T01:10:27;22.37;;;13.70;;
30133;SDS011;16946;49.984;10.672;2024-02-28T01:10:57;18.60;;;13.10;;
30133;SDS011;16946;49.984;10.672;2024-02-28T01:11:29;19.40;;;12.75;;
30133;SDS011;16946;49.984;10.672;2024-02-28T01:11:59;18.03;;;12.97;;
30133;SDS011;16946;49.984;10.672;2024-02-28T01:12:30;22.50;;;12.83;;
30133;SDS011;16946;49.984;10.672;2024-02-28T01:13:00;15.70;;;12.63;;
30133;SDS011;16946;49.984;10.672;2024-02-28T01:13:31;17.53;;;13.97;;
30133;SDS011;16946;49.984;10.672;2024-02-28T01:14:01;15.53;;;13.00;;
30133;SDS011;16946;49.984;10.672;2024-02-28T01:14:32;21.27;;;13.27;;
30133;SDS011;16946;49.984;10.672;2024-02-28T01:15:03;18.13;;;13.67;;
30133;SDS011;16946;49.984;10.672;2024-02-28T01:15:33;19.73;;;12.93;;
30133;SDS011;16946;49.984;10.672;2024-02-28T01:16:04;21.10;;;13.33;;
30133;SDS011;16946;49.984;10.672;2024-02-28T01:16:35;23.93;;;13.40;;
30133;SDS011;16946;49.984;10.672;2024-02-28T01:17:05;20.67;;;13.97;;
30133;SDS011;16946;49.984;10.672;2024-02-28T01:17:36;21.83;;;14.03;;
30133;SDS011;16946;49.984;10.672;2024-02-28T01:18:06;16.77;;;12.97;;
30133;SDS011;16946;49.984;10.672;2024-02-28T01:18:37;22.70;;;13.30;;
30133;SDS011;16946;49.984;10.672;2024-02-28T01:19:08;18.10;;;13.03;;
30133;SDS011;16946;49.984;10.672;2024-02-28T01:19:38;24.33;;;13.03;;
30133;SDS011;16946;49.984;10.672;2024-02-28T01:20:09;17.97;;;13.00;;
30133;SDS011;16946;49.984;10.672;2024-02-28T01:20:40;20.77;;;13.45;;
30133;SDS011;16946;49.984;10.672;2024-02-28T01:21:10;21.00;;;13.43;;
30133;SDS011;16946;49.984;10.672;2024-02-28T01:21:41;18.00;;;13.00;;
30133;SDS011;16946;49.984;10.672;2024-02-28T01:22:12;20.07;;;13.23;;
30133;SDS011;16946;49.984;10.672;2024-02-28T01:22:42;17.23;;;12.40;;
30133;SDS011;16946;49.984;10.672;2024-02-28T01:23:13;19.90;;;13.70;;
30133;SDS011;16946;49.984;10.672;2024-02-28T01:23:43;15.90;;;12.67;;
30133;SDS011;16946;49.984;10.672;2024-02-28T01:24:14;18.98;;;12.80;;
30133;SDS011;16946;49.984;10.672;2024-02-28T01:24:45;17.60;;;12.43;;
30133;SDS011;16946;49.984;10.672;2024-02-28T01:25:15;16.43;;;11.83;;
30133;SDS011;16946;49.984;10.672;2024-02-28T01:25:46;18.73;;;12.57;;
30133;SDS011;16946;49.984;10.672;2024-02-28T01:26:16;17.17;;;12.60;;
30133;SDS011;16946;49.984;10.672;2024-02-28T01:26:50;16.08;;;11.90;;
30133;SDS011;16946;49.984;10.672;2024-02-28T01:27:20;18.07;;;12.77;;
30133;SDS011;16946;49.984;10.672;2024-02-28T01:27:51;18.33;;;12.93;;
30133;SDS011;16946;49.984;10.672;2024-02-28T01:28:22;19.47;;;13.63;;
30133;SDS011;16946;49.984;10.672;2024-02-28T01:28:52;17.57;;;13.20;;
30133;SDS011;16946;49.984;10.672;2024-02-28T01:29:23;18.70;;;13.23;;
30133;SDS011;16946;49.984;10.672;2024-02-28T01:29:53;19.20;;;13.13;;
30133;SDS011;16946;49.984;10.672;2024-02-28T01:30:24;19.27;;;12.40;;
30133;SDS011;16946;49.984;10.672;2024-02-28T01:30:55;15.95;;;11.98;;
30133;SDS011;16946;49.984;10.672;2024-02-28T01:31:25;18.63;;;12.97;;
30133;SDS011;16946;49.984;10.672;2024-02-28T01:31:56;17.10;;;12.93;;
30133;SDS011;16946;49.984;10.672;2024-02-28T01:32:28;19.40;;;12.90;;
30133;SDS011;16946;49.984;10.672;2024-02-28T01:32:59;16.45;;;12.00;;
30133;SDS011;16946;49.984;10.672;2024-02-28T01:33:30;21.07;;;13.27;;
30133;SDS011;16946;49.984;10.672;2024-02-28T01:34:00;18.43;;;12.97;;
30133;SDS011;16946;49.984;10.672;2024-02-28T01:34:31;16.77;;;12.70;;
30133;SDS011;16946;49.984;10.672;2024-02-28T01:35:02;18.07;;;12.60;;
30133;SDS011;16946;49.984;10.672;2024-02-28T01:35:33;17.25;;;12.02;;
30133;SDS011;16946;49.984;10.672;2024-02-28T01:36:06;14.83;;;11.30;;
30133;SDS011;16946;49.984;10.672;2024-02-28T01:36:36;22.05;;;13.40;;
30133;SDS011;16946;49.984;10.672;2024-02-28T01:37:07;17.67;;;12.63;;
30133;SDS011;16946;49.984;10.672;2024-02-28T01:37:37;17.87;;;13.10;;
30133;SDS011;16946;49.984;10.672;2024-02-28T01:38:08;16.97;;;11.67;;
30133;SDS011;16946;49.984;10.672;2024-02-28T01:38:39;22.40;;;12.80;;
30133;SDS011;16946;49.984;10.672;2024-02-28T01:39:09;18.97;;;13.57;;
30133;SDS011;16946;49.984;10.672;2024-02-28T01:39:40;20.43;;;12.20;;
30133;SDS011;16946;49.984;10.672;2024-02-28T01:40:10;16.10;;;12.60;;
30133;SDS011;16946;49.984;10.672;2024-02-28T01:40:47;16.40;;;12.68;;
30133;SDS011;16946;49.984;10.672;2024-02-28T01:41:18;15.02;;;11.68;;
30133;SDS011;16946;49.984;10.672;2024-02-28T01:41:54;17.83;;;13.10;;
30133;SDS011;16946;49.984;10.672;2024-02-28T01:42:25;21.15;;;13.75;;
30133;SDS011;16946;49.984;10.672;2024-02-28T01:43:02;17.43;;;12.80;;
30133;SDS011;16946;49.984;10.672;2024-02-28T01:43:33;16.55;;;11.98;;
30133;SDS011;16946;49.984;10.672;2024-02-28T01:44:04;13.73;;;11.70;;
30133;SDS011;16946;49.984;10.672;2024-02-28T01:44:36;17.43;;;13.03;;
30133;SDS011;16946;49.984;10.672;2024-02-28T01:45:13;17.45;;;13.30;;
30133;SDS011;16946;49.984;10.672;2024-02-28T01:45:44;17.88;;;12.38;;
30133;SDS011;16946;49.984;10.672;2024-02-28T01:46:20;20.33;;;12.63;;
30133;SDS011;16946;49.984;10.672;2024-02-28T01:46:56;18.40;;;12.23;;
30133;SDS011;16946;49.984;10.672;2024-02-28T01:47:28;15.13;;;11.85;;
30133;SDS011;16946;49.984;10.672;2024-02-28T01:47:59;19.97;;;12.47;;
30133;SDS011;16946;49.984;10.672;2024-02-28T01:48:30;15.93;;;12.80;;
30133;SDS011;16946;49.984;10.672;2024-02-28T01:49:01;16.40;;;12.18;;
30133;SDS011;16946;49.984;10.672;2024-02-28T01:49:32;17.75;;;12.73;;
30133;SDS011;16946;49.984;10.672;2024-02-28T01:50:03;20.10;;;13.00;;
30133;SDS011;16946;49.984;10.672;2024-02-28T01:50:34;17.15;;;11.57;;
30133;SDS011;16946;49.984;10.672;2024-02-28T01:51:07;17.60;;;12.52;;
30133;SDS011;16946;49.984;10.672;2024-02-28T01:51:37;16.77;;;12.33;;
30133;SDS011;16946;49.984;10.672;2024-02-28T01:52:08;17.67;;;12.90;;
30133;SDS011;16946;49.984;10.672;2024-02-28T01:52:40;16.42;;;12.00;;
30133;SDS011;16946;49.984;10.672;2024-02-28T01:53:11;14.73;;;11.80;;
30133;SDS011;16946;49.984;10.672;2024-02-28T01:53:44;18.15;;;12.25;;
30133;SDS011;16946;49.984;10.672;2024-02-28T01:54:15;15.38;;;12.10;;
30133;SDS011;16946;49.984;10.672;2024-02-28T01:54:46;14.77;;;12.38;;
30133;SDS011;16946;49.984;10.672;2024-02-28T01:55:17;15.07;;;12.03;;
30133;SDS011;16946;49.984;10.672;2024-02-28T01:55:48;16.93;;;12.70;;
30133;SDS011;16946;49.984;10.672;2024-02-28T01:56:18;22.63;;;12.47;;
30133;SDS011;16946;49.984;10.672;2024-02-28T01:56:50;15.70;;;11.80;;
30133;SDS011;16946;49.984;10.672;2024-02-28T01:57:20;16.47;;;11.17;;
30133;SDS011;16946;49.984;10.672;2024-02-28T01:57:51;16.23;;;11.93;;
30133;SDS011;16946;49.984;10.672;2024-02-28T01:58:23;16.88;;;12.70;;
30133;SDS011;16946;49.984;10.672;2024-02-28T01:58:54;17.40;;;12.63;;
30133;SDS011;16946;49.984;10.672;2024-02-28T01:59:26;19.02;;;12.48;;
30133;SDS011;16946;49.984;10.672;2024-02-28T01:59:59;15.50;;;12.63;;
30133;SDS011;16946;49.984;10.672;2024-02-28T02:00:30;19.25;;;12.85;;
30133;SDS011;16946;49.984;10.672;2024-02-28T02:01:02;15.93;;;12.63;;
30133;SDS011;16946;49.984;10.672;2024-02-28T02:01:33;21.27;;;12.50;;
30133;SDS011;16946;49.984;10.672;2024-02-28T02:02:04;14.23;;;11.73;;
30133;SDS011;16946;49.984;10.672;2024-02-28T02:02:34;16.90;;;12.10;;
30133;SDS011;16946;49.984;10.672;2024-02-28T02:03:05;15.83;;;11.87;;
30133;SDS011;16946;49.984;10.672;2024-02-28T02:03:35;21.17;;;13.60;;
30133;SDS011;16946;49.984;10.672;2024-02-28T02:04:06;18.13;;;12.80;;
30133;SDS011;16946;49.984;10.672;2024-02-28T02:04:37;17.43;;;12.67;;
30133;SDS011;16946;49.984;10.672;2024-02-28T02:05:08;18.37;;;11.90;;
30133;SDS011;16946;49.984;10.672;2024-02-28T02:05:39;17.30;;;12.25;;
30133;SDS011;16946;49.984;10.672;2024-02-28T02:06:12;18.27;;;12.25;;
30133;SDS011;16946;49.984;10.672;2024-02-28T02:06:43;16.50;;;12.38;;
30133;SDS011;16946;49.984;10.672;2024-02-28T02:07:15;15.15;;;12.15;;
30133;SDS011;16946;49.984;10.672;2024-02-28T02:07:47;17.30;;;12.70;;
30133;SDS011;16946;49.984;10.672;2024-02-28T02:08:18;15.93;;;11.32;;
30133;SDS011;16946;49.984;10.672;2024-02-28T02:08:49;16.17;;;11.33;;
30133;SDS011;16946;49.984;10.672;2024-02-28T02:09:20;13.07;;;10.87;;
30133;SDS011;16946;49.984;10.672;2024-02-28T02:09:51;14.53;;;11.47;;
30133;SDS011;16946;49.984;10.672;2024-02-28T02:10:22;14.68;;;11.18;;
30133;SDS011;16946;49.984;10.672;2024-02-28T02:10:53;16.07;;;11.77;;
30133;SDS011;16946;49.984;10.672;2024-02-28T02:11:24;19.33;;;12.57;;
30133;SDS011;16946;49.984;10.672;2024-02-28T02:11:55;16.20;;;11.85;;
30133;SDS011;16946;49.984;10.672;2024-02-28T02:12:25;17.77;;;11.90;;
30133;SDS011;16946;49.984;10.672;2024-02-28T02:13:03;16.23;;;12.07;;
30133;SDS011;16946;49.984;10.672;2024-02-28T02:13:53;14.85;;;10.90;;
30133;SDS011;16946;49.984;10.672;2024-02-28T02:14:23;15.77;;;12.77;;
30133;SDS011;16946;49.984;10.672;2024-02-28T02:14:54;12.60;;;10.47;;
30133;SDS011;16946;49.984;10.672;2024-02-28T02:15:24;16.60;;;11.40;;
30133;SDS011;16946;49.984;10.672;2024-02-28T02:15:55;14.13;;;10.53;;
30133;SDS011;16946;49.984;10.672;2024-02-28T02:16:25;14.83;;;10.87;;
30133;SDS011;16946;49.984;10.672;2024-02-28T02:16:56;14.23;;;11.00;;
30133;SDS011;16946;49.984;10.672;2024-02-28T02:17:27;13.83;;;11.00;;
30133;SDS011;16946;49.984;10.672;2024-02-28T02:17:57;19.33;;;10.93;;
30133;SDS011;16946;49.984;10.672;2024-02-28T02:18:28;13.23;;;10.23;;
30133;SDS011;16946;49.984;10.672;2024-02-28T02:18:58;12.30;;;10.50;;
30133;SDS011;16946;49.984;10.672;2024-02-28T02:19:29;17.43;;;11.60;;
30133;SDS011;16946;49.984;10.672;2024-02-28T02:19:59;17.53;;;11.13;;
30133;SDS011;16946;49.984;10.672;2024-02-28T02:20:32;12.47;;;10.60;;
30133;SDS011;16946;49.984;10.672;2024-02-28T02:21:05;14.48;;;10.10;;
30133;SDS011;16946;49.984;10.672;2024-02-28T02:21:39;12.73;;;10.13;;
30133;SDS011;16946;49.984;10.672;2024-02-28T02:22:14;13.57;;;10.20;;
30133;SDS011;16946;49.984;10.672;2024-02-28T02:22:45;10.98;;;9.43;;
30133;SDS011;16946;49.984;10.672;2024-02-28T02:23:16;13.40;;;9.77;;
30133;SDS011;16946;49.984;10.672;2024-02-28T02:23:46;14.93;;;10.60;;
30133;SDS011;16946;49.984;10.672;2024-02-28T02:24:17;13.73;;;10.00;;
30133;SDS011;16946;49.984;10.672;2024-02-28T02:24:47;13.97;;;10.13;;
30133;SDS011;16946;49.984;10.672;2024-02-28T02:25:18;12.03;;;9.53;;
30133;SDS011;16946;49.984;10.672;2024-02-28T02:25:48;14.60;;;10.47;;
30133;SDS011;16946;49.984;10.672;2024-02-28T02:26:19;12.53;;;10.10;;
30133;SDS011;16946;49.984;10.672;2024-02-28T02:26:54;16.80;;;10.43;;
30133;SDS011;16946;49.984;10.672;2024-02-28T02:27:27;12.25;;;10.18;;
30133;SDS011;16946;49.984;10.672;2024-02-28T02:27:57;13.33;;;10.60;;
30133;SDS011;16946;49.984;10.672;2024-02-28T02:28:28;12.57;;;10.00;;
30133;SDS011;16946;49.984;10.672;2024-02-28T02:28:58;12.00;;;9.97;;
30133;SDS011;16946;49.984;10.672;2024-02-28T02:29:29;14.60;;;10.30;;
30133;SDS011;16946;49.984;10.672;2024-02-28T02:29:59;14.80;;;10.33;;
30133;SDS011;16946;49.984;10.672;2024-02-28T02:30:30;11.73;;;9.57;;
30133;SDS011;16946;49.984;10.672;2024-02-28T02:31:00;13.10;;;10.40;;
30133;SDS011;16946;49.984;10.672;2024-02-28T02:31:31;12.93;;;9.67;;
30133;SDS011;16946;49.984;10.672;2024-02-28T02:32:02;12.73;;;9.50;;
30133;SDS011;16946;49.984;10.672;2024-02-28T02:32:32;13.97;;;9.93;;
30133;SDS011;16946;49.984;10.672;2024-02-28T02:33:03;16.97;;;10.43;;
30133;SDS011;16946;49.984;10.672;2024-02-28T02:33:34;12.80;;;9.27;;
30133;SDS011;16946;49.984;10.672;2024-02-28T02:34:05;15.20;;;10.63;;
30133;SDS011;16946;49.984;10.672;2024-02-28T02:34:35;14.30;;;10.20;;
30133;SDS011;16946;49.984;10.672;2024-02-28T02:35:06;16.03;;;10.90;;
30133;SDS011;16946;49.984;10.672;2024-02-28T02:35:37;14.83;;;10.03;;
30133;SDS011;16946;49.984;10.672;2024-02-28T02:36:07;20.43;;;10.27;;
30133;SDS011;16946;49.984;10.672;2024-02-28T02:36:38;14.97;;;9.70;;
30133;SDS011;16946;49.984;10.672;2024-02-28T02:37:08;13.27;;;11.03;;
30133;SDS011;16946;49.984;10.672;2024-02-28T02:37:42;13.50;;;10.40;;
30133;SDS011;16946;49.984;10.672;2024-02-28T02:38:15;14.00;;;9.95;;
30133;SDS011;16946;49.984;10.672;2024-02-28T02:38:46;13.07;;;10.07;;
30133;SDS011;16946;49.984;10.672;2024-02-28T02:39:16;12.57;;;9.97;;
30133;SDS011;16946;49.984;10.672;2024-02-28T02:39:47;19.23;;;10.43;;
30133;SDS011;16946;49.984;10.672;2024-02-28T02:40:18;13.63;;;10.23;;
30133;SDS011;16946;49.984;10.672;2024-02-28T02:40:49;14.97;;;11.20;;
30133;SDS011;16946;49.984;10.672;2024-02-28T02:41:20;15.35;;;10.57;;
30133;SDS011;16946;49.984;10.672;2024-02-28T02:41:50;12.47;;;9.67;;
30133;SDS011;16946;49.984;10.672;2024-02-28T02:42:21;13.50;;;9.82;;
30133;SDS011;16946;49.984;10.672;2024-02-28T02:42:52;12.80;;;9.90;;
30133;SDS011;16946;49.984;10.672;2024-02-28T02:43:22;16.23;;;10.63;;
30133;SDS011;16946;49.984;10.672;2024-02-28T02:43:53;12.30;;;9.70;;
30133;SDS011;16946;49.984;10.672;2024-02-28T02:44:24;14.13;;;10.80;;
30133;SDS011;16946;49.984;10.672;2024-02-28T02:44:54;14.03;;;10.23;;
30133;SDS011;16946;49.984;10.672;2024-02-28T02:45:25;12.97;;;9.13;;
30133;SDS011;16946;49.984;10.672;2024-02-28T02:45:55;13.57;;;9.40;;
30133;SDS011;16946;49.984;10.672;2024-02-28T02:46:26;14.90;;;9.67;;
30133;SDS011;16946;49.984;10.672;2024-02-28T02:46:56;11.53;;;9.80;;
30133;SDS011;16946;49.984;10.672;2024-02-28T02:47:27;13.67;;;10.43;;
30133;SDS011;16946;49.984;10.672;2024-02-28T02:47:57;14.47;;;10.67;;
30133;SDS011;16946;49.984;10.672;2024-02-28T02:48:28;12.03;;;9.93;;
30133;SDS011;16946;49.984;10.672;2024-02-28T02:48:58;13.17;;;10.23;;
30133;SDS011;16946;49.984;10.672;2024-02-28T02:49:29;13.20;;;10.43;;
30133;SDS011;16946;49.984;10.672;2024-02-28T02:49:59;14.00;;;10.10;;
30133;SDS011;16946;49.984;10.672;2024-02-28T02:50:30;15.90;;;9.30;;
30133;SDS011;16946;49.984;10.672;2024-02-28T02:51:00;14.97;;;9.67;;
30133;SDS011;16946;49.984;10.672;2024-02-28T02:51:31;10.67;;;9.40;;
30133;SDS011;16946;49.984;10.672;2024-02-28T02:52:01;14.20;;;10.43;;
30133;SDS011;16946;49.984;10.672;2024-02-28T02:52:32;12.90;;;9.13;;
30133;SDS011;16946;49.984;10.672;2024-02-28T02:53:03;12.13;;;10.27;;
30133;SDS011;16946;49.984;10.672;2024-02-28T02:53:34;11.50;;;9.02;;
30133;SDS011;16946;49.984;10.672;2024-02-28T02:54:05;11.63;;;9.90;;
30133;SDS011;16946;49.984;10.672;2024-02-28T02:54:36;11.37;;;9.33;;
30133;SDS011;16946;49.984;10.672;2024-02-28T02:55:06;11.68;;;9.85;;
30133;SDS011;16946;49.984;10.672;2024-02-28T02:55:37;16.23;;;10.47;;
30133;SDS011;16946;49.984;10.672;2024-02-28T02:56:08;11.60;;;9.67;;
30133;SDS011;16946;49.984;10.672;2024-02-28T02:56:41;17.33;;;10.13;;
30133;SDS011;16946;49.984;10.672;2024-02-28T02:57:12;14.55;;;10.82;;
30133;SDS011;16946;49.984;10.672;2024-02-28T02:57:43;14.90;;;10.33;;
30133;SDS011;16946;49.984;10.672;2024-02-28T02:58:13;14.83;;;10.27;;
30133;SDS011;16946;49.984;10.672;2024-02-28T02:58:44;14.43;;;10.27;;
30133;SDS011;16946;49.984;10.672;2024-02-28T02:59:14;13.47;;;10.47;;